Time;durP1;ratioP1;P1;durP2;ratioP2;P2;SDS_P1;SDS_P2;PMS_P1;PMS_P2;Temp;Humidity;BMP_temperature;BMP_pressure;BME280_temperature;BME280_humidity;BME280_pressure;Samples;Min_cycle;Max_cycle;Signal;HPM_P1;HPM_P2
2022/05/06 00:02:21;;;;;;;12.40;9.70;;;7.30;99.90;;;;;;5092129;28;20188;-87
2022/05/06 00:04:48;;;;;;;13.43;9.90;;;7.30;99.90;;;;;;5092227;28;20203;-85
2022/05/06 00:07:16;;;;;;;17.23;10.17;;;7.20;99.90;;;;;;5091724;28;20735;-86
2022/05/06 00:09:44;;;;;;;14.03;9.20;;;7.10;99.90;;;;;;5091812;28;20703;-86
2022/05/06 00:12:12;;;;;;;13.67;9.10;;;7.00;99.90;;;;;;5091673;28;20608;-86
2022/05/06 00:14:39;;;;;;;13.90;9.93;;;7.00;99.90;;;;;;5092106;28;20211;-86
2022/05/06 00:17:07;;;;;;;15.73;10.30;;;6.90;99.90;;;;;;5091657;28;20237;-86
2022/05/06 00:19:34;;;;;;;13.33;9.30;;;6.80;99.90;;;;;;5091540;28;20199;-86
2022/05/06 00:22:02;;;;;;;13.47;9.53;;;6.80;99.90;;;;;;5091886;28;20200;-88
2022/05/06 00:24:30;;;;;;;14.83;8.80;;;6.70;99.90;;;;;;5091977;28;20253;-85
2022/05/06 00:26:57;;;;;;;12.23;9.30;;;6.60;99.90;;;;;;5091893;28;20223;-87
2022/05/06 00:29:24;;;;;;;19.87;10.63;;;6.60;99.90;;;;;;5091567;28;20248;-86
2022/05/06 00:31:51;;;;;;;13.43;10.10;;;6.50;99.90;;;;;;5091539;28;20552;-86
2022/05/06 00:34:41;;;;;;;19.57;9.77;;;6.50;99.90;;;;;;5091695;28;20198;-87
2022/05/06 00:37:14;;;;;;;14.70;10.70;;;6.40;99.90;;;;;;5091494;28;20231;-86
2022/05/06 00:39:42;;;;;;;13.80;10.50;;;6.40;99.90;;;;;;5091424;28;20720;-86
2022/05/06 00:42:09;;;;;;;15.03;10.63;;;6.30;99.90;;;;;;5091821;28;20223;-87
2022/05/06 00:44:36;;;;;;;15.93;10.40;;;6.40;99.90;;;;;;5092043;28;20231;-86
2022/05/06 00:47:05;;;;;;;17.47;10.73;;;6.30;99.90;;;;;;5095868;28;20230;-86
2022/05/06 00:49:32;;;;;;;17.87;10.73;;;6.30;99.90;;;;;;5095454;28;20743;-85
2022/05/06 00:52:00;;;;;;;14.63;10.73;;;6.20;99.90;;;;;;5095487;28;20216;-86
2022/05/06 00:54:27;;;;;;;17.40;10.43;;;6.20;99.90;;;;;;5095495;28;20298;-85
2022/05/06 00:56:55;;;;;;;16.97;10.83;;;6.20;99.90;;;;;;5095430;28;21078;-86
2022/05/06 00:59:22;;;;;;;13.40;10.00;;;6.10;99.90;;;;;;5095410;28;20620;-86
2022/05/06 01:01:49;;;;;;;15.30;10.90;;;6.00;99.90;;;;;;5095491;28;20194;-86
2022/05/06 01:04:17;;;;;;;16.23;10.50;;;6.00;99.90;;;;;;5095206;28;20231;-85
2022/05/06 01:06:45;;;;;;;15.80;10.70;;;5.90;99.90;;;;;;5095284;28;20188;-85
2022/05/06 01:09:15;;;;;;;14.27;10.80;;;5.90;99.90;;;;;;5095012;28;20223;-86
2022/05/06 01:11:43;;;;;;;13.67;10.23;;;5.90;99.90;;;;;;5094970;28;20662;-85
2022/05/06 01:14:11;;;;;;;13.80;9.90;;;5.80;99.90;;;;;;5095124;28;20194;-85
2022/05/06 01:16:39;;;;;;;14.97;10.00;;;5.80;99.90;;;;;;5095010;28;20222;-85
2022/05/06 01:19:06;;;;;;;14.40;10.27;;;5.80;99.90;;;;;;5095125;28;20226;-86
2022/05/06 01:21:39;;;;;;;15.67;10.67;;;5.80;99.90;;;;;;5094893;28;20614;-86
2022/05/06 01:24:08;;;;;;;15.13;10.27;;;5.70;99.90;;;;;;5094805;28;20553;-87
2022/05/06 01:27:01;;;;;;;12.57;10.07;;;5.70;99.90;;;;;;5095134;28;20234;-86
2022/05/06 01:29:30;;;;;;;12.50;8.93;;;5.70;99.90;;;;;;5097944;28;20237;-86
2022/05/06 01:31:58;;;;;;;10.77;7.97;;;5.60;99.90;;;;;;5094441;28;20234;-85
2022/05/06 01:34:28;;;;;;;11.87;8.77;;;5.60;99.90;;;;;;5094685;28;20257;-86
2022/05/06 01:37:01;;;;;;;13.90;9.13;;;5.60;99.90;;;;;;5094715;28;20557;-87
2022/05/06 01:39:31;;;;;;;15.90;11.27;;;5.50;99.90;;;;;;5094456;28;20278;-86
2022/05/06 01:42:03;;;;;;;18.97;10.97;;;5.50;99.90;;;;;;5094848;28;20196;-86
2022/05/06 01:44:35;;;;;;;14.67;10.07;;;5.40;99.90;;;;;;5094660;28;20186;-86
2022/05/06 01:47:06;;;;;;;14.70;10.40;;;5.40;99.90;;;;;;5094845;28;20175;-85
2022/05/06 01:49:33;;;;;;;15.77;11.17;;;5.40;99.90;;;;;;5094454;28;20731;-86
2022/05/06 01:52:01;;;;;;;17.47;11.57;;;5.40;99.90;;;;;;5094472;28;20279;-86
2022/05/06 01:54:30;;;;;;;17.93;11.00;;;5.40;99.90;;;;;;5094525;28;20187;-86
2022/05/06 01:56:59;;;;;;;14.20;10.70;;;5.40;99.90;;;;;;5093556;28;20320;-86
2022/05/06 01:59:26;;;;;;;15.80;11.17;;;5.30;99.90;;;;;;5093987;28;20244;-86
2022/05/06 02:01:55;;;;;;;17.27;11.40;;;5.30;1.00;;;;;;5093872;28;20624;-86
2022/05/06 02:07:05;;;;;;;18.63;13.33;;;5.30;1.00;;;;;;5077282;28;20187;-86
2022/05/06 02:09:34;;;;;;;19.53;12.87;;;5.30;1.00;;;;;;5094436;28;20194;-86
2022/05/06 02:12:01;;;;;;;16.13;12.63;;;5.30;1.00;;;;;;5093801;28;20284;-86
2022/05/06 02:14:28;;;;;;;18.53;13.50;;;5.40;1.00;;;;;;5094008;28;20281;-86
2022/05/06 02:16:55;;;;;;;17.23;12.20;;;5.40;1.00;;;;;;5093791;28;20257;-86
2022/05/06 02:19:22;;;;;;;18.13;11.93;;;5.40;1.00;;;;;;5093613;28;20248;-86
2022/05/06 02:21:49;;;;;;;20.03;12.20;;;5.40;1.00;;;;;;5093649;28;20202;-87
2022/05/06 02:24:16;;;;;;;15.67;11.27;;;5.40;1.00;;;;;;5094012;28;20275;-88
2022/05/06 02:26:44;;;;;;;16.77;11.60;;;5.30;1.00;;;;;;5093947;28;20198;-86
2022/05/06 02:29:11;;;;;;;15.70;11.17;;;5.30;1.00;;;;;;5093704;28;20225;-85
2022/05/06 02:34:23;;;;;;;19.23;12.33;;;5.30;1.00;;;;;;5093591;28;20228;-87
2022/05/06 02:36:50;;;;;;;16.07;11.47;;;5.30;1.00;;;;;;5093187;28;20322;-86
2022/05/06 02:39:16;;;;;;;21.60;11.93;;;5.20;1.00;;;;;;5093269;28;20244;-86
2022/05/06 02:41:45;;;;;;;15.80;12.40;;;5.20;1.00;;;;;;5093195;28;20669;-86
2022/05/06 02:44:13;;;;;;;15.97;11.07;;;5.20;1.00;;;;;;5093463;28;20283;-86
2022/05/06 02:46:39;;;;;;;14.83;11.00;;;5.20;1.00;;;;;;5093682;28;20653;-86
2022/05/06 02:49:06;;;;;;;14.47;10.80;;;5.20;1.00;;;;;;5093386;28;20234;-86
2022/05/06 02:51:33;;;;;;;16.47;10.90;;;5.10;1.00;;;;;;5093188;28;20254;-86
2022/05/06 02:54:00;;;;;;;16.47;10.57;;;5.10;1.00;;;;;;5092891;28;20284;-86
2022/05/06 02:56:27;;;;;;;14.53;10.43;;;5.10;1.00;;;;;;5093149;28;20295;-86
2022/05/06 02:58:56;;;;;;;12.97;9.73;;;5.10;1.00;;;;;;5093051;28;20238;-86
2022/05/06 03:01:22;;;;;;;14.30;9.17;;;5.00;1.00;;;;;;5093223;28;20239;-86
2022/05/06 03:03:49;;;;;;;10.97;7.80;;;5.00;1.00;;;;;;5093282;28;20225;-86
2022/05/06 03:06:16;;;;;;;11.40;8.30;;;5.00;1.00;;;;;;5092730;28;20284;-86
2022/05/06 03:08:43;;;;;;;13.77;8.43;;;5.00;1.00;;;;;;5091852;28;20232;-86
2022/05/06 03:11:10;;;;;;;14.27;11.13;;;5.00;1.00;;;;;;5093287;28;20242;-88
2022/05/06 03:13:38;;;;;;;13.93;9.17;;;5.00;1.00;;;;;;5093459;28;20194;-86
2022/05/06 03:16:06;;;;;;;16.00;10.10;;;4.90;1.00;;;;;;5092845;28;20229;-87
2022/05/06 03:18:33;;;;;;;16.93;10.50;;;4.90;1.00;;;;;;5092438;28;20715;-85
2022/05/06 03:21:00;;;;;;;14.23;10.40;;;5.00;1.00;;;;;;5092438;28;20214;-86
2022/05/06 03:23:27;;;;;;;15.00;9.43;;;5.00;1.00;;;;;;5092422;28;20283;-87
2022/05/06 03:25:54;;;;;;;14.60;11.17;;;5.00;1.00;;;;;;5092261;28;20620;-87
2022/05/06 03:28:21;;;;;;;15.97;10.90;;;5.00;1.00;;;;;;5092685;28;20280;-86
2022/05/06 03:30:48;;;;;;;13.13;9.07;;;5.10;1.00;;;;;;5092404;28;20721;-87
2022/05/06 03:33:18;;;;;;;17.30;10.47;;;5.10;1.00;;;;;;5092666;28;20215;-87
2022/05/06 03:35:45;;;;;;;16.50;10.13;;;5.10;1.00;;;;;;5092431;28;20209;-86
2022/05/06 03:38:13;;;;;;;16.20;9.40;;;5.10;1.00;;;;;;5092445;28;20730;-87
2022/05/06 03:40:40;;;;;;;13.53;9.33;;;5.20;1.00;;;;;;5092738;28;20194;-86
2022/05/06 03:43:08;;;;;;;14.23;8.13;;;5.20;1.00;;;;;;5092411;28;20193;-87
2022/05/06 03:45:36;;;;;;;13.90;9.30;;;5.30;1.00;;;;;;5092067;28;20721;-87
2022/05/06 03:48:04;;;;;;;25.50;16.10;;;5.30;1.00;;;;;;5092305;28;20201;-86
2022/05/06 03:53:17;;;;;;;13.30;10.07;;;5.50;1.00;;;;;;5092087;28;20183;-86
2022/05/06 03:55:44;;;;;;;17.17;10.23;;;5.60;1.00;;;;;;5092280;28;20279;-86
2022/05/06 03:58:10;;;;;;;15.87;10.23;;;5.70;1.00;;;;;;5092806;28;20183;-86
2022/05/06 04:00:37;;;;;;;16.90;10.30;;;5.80;1.00;;;;;;5092094;28;20640;-87
2022/05/06 04:03:04;;;;;;;14.47;10.00;;;5.90;29.70;;;;;;5092530;28;20191;-86
2022/05/06 04:05:33;;;;;;;17.97;12.07;;;6.00;64.10;;;;;;5092450;28;20192;-86
2022/05/06 04:08:00;;;;;;;13.67;10.13;;;6.20;99.90;;;;;;5091717;28;20218;-86
2022/05/06 04:10:27;;;;;;;16.00;10.20;;;6.30;99.90;;;;;;5091278;28;20660;-86
2022/05/06 04:12:54;;;;;;;18.33;13.83;;;6.40;99.90;;;;;;5092213;28;20282;-86
2022/05/06 04:15:21;;;;;;;27.43;17.37;;;6.80;1.00;;;;;;5092303;28;20391;-87
2022/05/06 04:17:49;;;;;;;25.83;17.27;;;7.60;1.00;;;;;;5109772;28;20262;-90
2022/05/06 04:25:50;;;;;;;16.15;8.70;;;11.70;19.60;;;;;;5101106;28;20684;-87
2022/05/06 04:28:17;;;;;;;12.20;6.70;;;13.00;99.90;;;;;;5096287;28;20191;-88
2022/05/06 04:30:44;;;;;;;10.67;6.40;;;14.20;1.00;;;;;;5096561;28;20652;-88
2022/05/06 04:33:11;;;;;;;14.20;6.55;;;15.10;99.90;;;;;;5095980;28;20226;-88
2022/05/06 04:35:40;;;;;;;10.43;6.50;;;16.00;99.90;;;;;;5095880;28;20249;-87
2022/05/06 04:38:08;;;;;;;11.63;6.57;;;16.90;1.00;;;;;;5095722;28;20922;-85
2022/05/06 04:40:36;;;;;;;9.50;6.00;;;17.90;99.90;;;;;;5096013;28;20231;-86
2022/05/06 04:43:03;;;;;;;7.93;5.60;;;18.80;98.30;;;;;;5096018;28;20535;-85
2022/05/06 04:45:30;;;;;;;8.02;5.35;;;19.60;1.00;;;;;;5095908;28;20227;-86
2022/05/06 04:47:57;;;;;;;7.18;5.50;;;20.50;99.90;;;;;;5095703;28;20191;-88
2022/05/06 04:50:24;;;;;;;7.70;4.88;;;21.30;99.90;;;;;;5095343;28;20305;-86
2022/05/06 04:52:52;;;;;;;6.80;4.75;;;22.00;13.10;;;;;;5095756;28;20270;-85
2022/05/06 04:55:20;;;;;;;9.45;5.60;;;22.80;1.00;;;;;;5095465;28;20192;-87
2022/05/06 04:57:47;;;;;;;8.60;5.32;;;23.40;1.00;;;;;;5096090;28;20270;-87
2022/05/06 05:00:15;;;;;;;11.48;5.38;;;24.00;1.00;;;;;;5095449;28;20559;-86
2022/05/06 05:02:42;;;;;;;11.18;4.97;;;24.60;1.00;;;;;;5095404;28;20234;-84
2022/05/06 05:05:09;;;;;;;8.18;4.65;;;25.00;1.00;;;;;;5095645;28;20228;-84
2022/05/06 05:07:36;;;;;;;10.68;5.20;;;25.50;1.00;;;;;;5095386;28;20231;-84
2022/05/06 05:10:04;;;;;;;7.03;4.80;;;26.00;1.00;;;;;;5094308;28;20234;-84
2022/05/06 05:12:32;;;;;;;13.88;4.78;;;26.40;1.00;;;;;;5095527;28;20287;-86
2022/05/06 05:14:59;;;;;;;6.70;4.00;;;26.80;1.00;;;;;;5095405;28;20192;-86
2022/05/06 05:17:26;;;;;;;6.47;3.95;;;27.20;1.00;;;;;;5094942;28;20254;-85
2022/05/06 05:19:53;;;;;;;6.85;4.35;;;27.60;1.00;;;;;;5094125;28;20627;-85
2022/05/06 05:22:20;;;;;;;7.60;4.20;;;28.00;1.00;;;;;;5094018;28;20656;-85
2022/05/06 05:24:47;;;;;;;5.95;4.13;;;28.30;1.00;;;;;;5095298;28;20195;-82
2022/05/06 05:27:14;;;;;;;6.88;4.35;;;28.50;1.00;;;;;;5095569;28;20204;-82
2022/05/06 05:29:43;;;;;;;6.35;4.10;;;28.60;1.00;;;;;;5094836;28;20703;-82
2022/05/06 05:32:11;;;;;;;5.18;4.18;;;28.70;1.00;;;;;;5093356;28;20227;-83
2022/05/06 05:34:41;;;;;;;5.78;3.67;;;28.70;1.00;;;;;;5095144;28;20584;-83
2022/05/06 05:37:08;;;;;;;7.63;4.20;;;28.90;1.00;;;;;;5094880;28;20229;-82
2022/05/06 05:39:36;;;;;;;8.20;4.28;;;29.00;1.00;;;;;;5094961;28;20214;-83
2022/05/06 05:42:04;;;;;;;7.05;3.70;;;29.20;1.00;;;;;;5094543;28;20648;-83
2022/05/06 05:50:01;;;;;;;6.80;3.70;;;29.90;1.00;;;;;;5094571;28;20178;-85
2022/05/06 05:52:28;;;;;;;7.45;4.25;;;30.30;1.00;;;;;;5094813;28;20227;-85
2022/05/06 05:54:55;;;;;;;5.93;4.10;;;30.60;1.00;;;;;;5094656;28;20533;-82
2022/05/06 05:57:22;;;;;;;9.57;4.90;;;31.00;1.00;;;;;;5094557;28;20314;-83
2022/05/06 05:59:49;;;;;;;7.25;4.63;;;31.40;1.00;;;;;;5094749;28;20234;-82
2022/05/06 06:02:18;;;;;;;7.18;4.60;;;31.60;1.00;;;;;;5094383;28;20651;-83
2022/05/06 06:04:45;;;;;;;8.57;4.95;;;31.80;1.00;;;;;;5094283;28;20204;-82
2022/05/06 06:07:12;;;;;;;10.98;4.53;;;32.00;1.00;;;;;;5094133;28;20203;-82
2022/05/06 06:09:39;;;;;;;7.25;4.18;;;32.30;1.00;;;;;;5094027;28;20231;-84
2022/05/06 06:12:07;;;;;;;10.77;7.93;;;32.50;1.00;;;;;;5094280;28;20282;-81
2022/05/06 06:14:34;;;;;;;10.18;5.50;;;32.80;1.00;;;;;;5094282;28;20195;-85
2022/05/06 06:17:02;;;;;;;26.02;15.18;;;33.00;1.00;;;;;;5093835;28;20687;-85
2022/05/06 06:19:31;;;;;;;32.78;23.23;;;33.20;1.00;;;;;;5093852;28;20187;-85
2022/05/06 06:21:57;;;;;;;39.80;35.55;;;33.60;1.00;;;;;;5094111;28;20278;-83
2022/05/06 06:24:24;;;;;;;50.20;36.28;;;33.80;1.00;;;;;;5094097;28;20222;-82
2022/05/06 06:26:52;;;;;;;26.80;17.73;;;33.80;1.00;;;;;;5093806;28;20230;-83
2022/05/06 06:29:19;;;;;;;12.85;7.50;;;33.90;1.00;;;;;;5093932;28;20305;-84
2022/05/06 06:31:46;;;;;;;22.20;11.63;;;34.10;1.00;;;;;;5093563;28;20714;-83
2022/05/06 06:34:13;;;;;;;19.45;14.10;;;34.30;1.00;;;;;;5093600;28;20645;-84
2022/05/06 06:36:41;;;;;;;11.55;7.85;;;34.50;1.00;;;;;;5093769;28;20250;-83
2022/05/06 06:39:08;;;;;;;10.18;5.72;;;34.70;1.00;;;;;;5093548;28;20674;-83
2022/05/06 06:41:35;;;;;;;11.82;9.18;;;34.90;1.00;;;;;;5093754;28;20277;-84
2022/05/06 06:44:02;;;;;;;10.45;7.82;;;35.00;1.00;;;;;;5093557;28;20190;-82
2022/05/06 06:46:32;;;;;;;8.45;4.90;;;35.00;1.00;;;;;;5093338;28;20198;-82
2022/05/06 06:48:59;;;;;;;8.75;4.70;;;35.10;1.00;;;;;;5093168;28;20195;-81
2022/05/06 06:51:26;;;;;;;8.25;4.43;;;35.20;1.00;;;;;;5093341;28;20223;-82
2022/05/06 06:53:54;;;;;;;8.18;3.97;;;35.00;1.00;;;;;;5093561;28;20218;-83
2022/05/06 06:56:21;;;;;;;6.88;3.78;;;34.90;1.00;;;;;;5093672;28;20190;-83
2022/05/06 06:58:48;;;;;;;6.78;4.20;;;34.70;1.00;;;;;;5093571;28;20223;-84
2022/05/06 07:01:15;;;;;;;6.95;3.95;;;34.70;1.00;;;;;;5093289;28;20288;-82
2022/05/06 07:03:42;;;;;;;8.65;5.70;;;34.70;1.00;;;;;;5093289;28;20622;-83
2022/05/06 07:11:55;;;;;;;6.78;4.30;;;34.60;1.00;;;;;;5093008;28;20186;-83
2022/05/06 07:14:23;;;;;;;5.07;4.18;;;34.70;1.00;;;;;;5093446;28;20187;-82
2022/05/06 07:16:51;;;;;;;6.90;3.85;;;34.70;1.00;;;;;;5093151;28;20234;-83
2022/05/06 07:19:17;;;;;;;7.82;3.88;;;34.80;1.00;;;;;;5093031;28;20212;-82
2022/05/06 07:21:45;;;;;;;7.80;4.10;;;35.00;1.00;;;;;;5092925;28;20285;-82
2022/05/06 07:24:13;;;;;;;7.15;3.70;;;35.20;1.00;;;;;;5092582;28;20234;-82
2022/05/06 07:26:40;;;;;;;5.03;3.58;;;35.30;1.00;;;;;;5092574;28;20674;-82
2022/05/06 07:29:07;;;;;;;7.18;4.00;;;35.40;1.00;;;;;;5092839;28;20282;-84
2022/05/06 07:31:34;;;;;;;9.45;3.85;;;35.30;1.00;;;;;;5092736;28;20248;-82
2022/05/06 07:34:00;;;;;;;5.07;3.60;;;35.20;1.00;;;;;;5092762;28;20332;-84
2022/05/06 07:36:27;;;;;;;6.25;3.92;;;35.30;1.00;;;;;;5092594;28;20201;-83
2022/05/06 07:38:54;;;;;;;6.03;3.75;;;35.40;1.00;;;;;;5092622;28;20240;-83
2022/05/06 07:41:23;;;;;;;6.82;4.35;;;35.60;1.00;;;;;;5092876;28;20225;-83
2022/05/06 07:43:49;;;;;;;7.28;5.13;;;35.50;1.00;;;;;;5092625;28;20202;-81
2022/05/06 07:46:16;;;;;;;6.53;5.13;;;35.50;1.00;;;;;;5092544;28;20201;-84
2022/05/06 07:48:43;;;;;;;7.13;3.90;;;35.50;1.00;;;;;;5092184;28;20286;-82
2022/05/06 07:51:10;;;;;;;6.30;4.55;;;35.30;1.00;;;;;;5092089;28;20219;-82
2022/05/06 07:53:37;;;;;;;7.15;3.90;;;35.30;1.00;;;;;;5092258;28;20694;-83
2022/05/06 07:56:04;;;;;;;7.43;3.75;;;35.40;1.00;;;;;;5091876;28;20278;-82
2022/05/06 07:58:33;;;;;;;5.80;4.40;;;35.60;1.00;;;;;;5092106;28;20310;-83
2022/05/06 08:00:59;;;;;;;7.13;5.82;;;35.80;1.00;;;;;;5091984;28;20187;-83
2022/05/06 08:06:11;;;;;;;7.80;3.90;;;35.80;1.00;;;;;;5092223;28;20177;-82
2022/05/06 08:08:38;;;;;;;4.47;3.42;;;35.60;1.00;;;;;;5091967;28;20709;-82
2022/05/06 08:11:05;;;;;;;6.60;4.28;;;35.70;1.00;;;;;;5092275;28;20282;-82
2022/05/06 08:13:34;;;;;;;10.88;3.60;;;35.90;1.00;;;;;;5091944;28;20558;-82
2022/05/06 08:16:00;;;;;;;5.68;3.55;;;35.90;1.00;;;;;;5091933;28;20222;-84
2022/05/06 08:18:28;;;;;;;8.35;4.07;;;36.10;1.00;;;;;;5092109;28;20276;-82
2022/05/06 08:20:55;;;;;;;14.98;8.13;;;36.30;1.00;;;;;;5092408;28;20195;-82
2022/05/06 08:23:22;;;;;;;13.68;4.93;;;36.40;1.00;;;;;;5092207;28;20195;-82
2022/05/06 08:25:49;;;;;;;7.55;5.47;;;36.20;1.00;;;;;;5091774;28;20678;-82
2022/05/06 08:28:19;;;;;;;8.40;5.20;;;35.40;1.00;;;;;;5092144;28;20726;-82
2022/05/06 08:30:47;;;;;;;5.50;3.90;;;34.90;1.00;;;;;;5091877;28;20282;-83
2022/05/06 08:33:14;;;;;;;9.27;3.90;;;34.80;1.00;;;;;;5091791;28;20591;-82
2022/05/06 08:35:41;;;;;;;7.32;4.35;;;34.60;1.00;;;;;;5092124;28;20187;-85
2022/05/06 08:38:08;;;;;;;10.68;5.75;;;33.70;1.00;;;;;;5091942;28;20133;-82
2022/05/06 08:40:36;;;;;;;9.32;4.07;;;32.30;1.00;;;;;;5092074;28;20274;-82
2022/05/06 08:43:03;;;;;;;6.13;4.15;;;31.60;1.00;;;;;;5092028;28;20282;-81
2022/05/06 08:51:02;;;;;;;4.60;3.55;;;32.30;1.00;;;;;;5091585;28;20576;-82
2022/05/06 08:53:32;;;;;;;7.30;3.80;;;32.70;1.00;;;;;;5091921;28;20219;-82
2022/05/06 08:56:02;;;;;;;6.47;3.67;;;33.10;1.00;;;;;;5092214;28;20246;-84
2022/05/06 08:58:33;;;;;;;19.25;4.53;;;33.10;1.00;;;;;;5091562;28;20215;-82
2022/05/06 09:01:05;;;;;;;8.45;3.42;;;32.90;1.00;;;;;;5091795;28;20202;-80
2022/05/06 09:03:33;;;;;;;5.03;3.10;;;32.70;1.00;;;;;;5091898;28;20195;-81
2022/05/06 09:06:01;;;;;;;6.93;3.60;;;32.50;1.00;;;;;;5092925;28;20277;-82
2022/05/06 09:08:38;;;;;;;10.65;4.00;;;32.50;1.00;;;;;;5095832;28;20249;-81
2022/05/06 09:11:07;;;;;;;4.22;2.97;;;32.70;1.00;;;;;;5095476;28;20274;-81
2022/05/06 09:13:35;;;;;;;6.47;3.00;;;32.50;1.00;;;;;;5095510;28;20218;-81
2022/05/06 09:19:20;;;;;;;5.32;2.85;;;32.30;1.00;;;;;;5096389;28;20211;-82
2022/05/06 09:22:02;;;;;;;4.93;3.50;;;32.70;1.00;;;;;;5113700;28;20206;-84
2022/05/06 09:24:32;;;;;;;9.52;6.82;;;32.70;1.00;;;;;;5113600;28;20240;-80
2022/05/06 09:27:07;;;;;;;4.95;3.22;;;32.70;1.00;;;;;;5111433;28;20237;-89
2022/05/06 09:29:38;;;;;;;5.15;3.20;;;32.70;1.00;;;;;;5111627;28;20213;-83
2022/05/06 09:32:22;;;;;;;6.05;3.13;;;32.10;1.00;;;;;;5112413;28;20195;-86
2022/05/06 09:34:55;;;;;;;7.10;2.92;;;31.30;1.00;;;;;;5112741;28;20725;-87
2022/05/06 09:37:37;;;;;;;3.40;2.70;;;30.90;1.00;;;;;;5112932;28;20216;-85
2022/05/06 09:40:07;;;;;;;5.60;2.83;;;30.60;1.00;;;;;;5096411;28;20547;-81
2022/05/06 09:42:34;;;;;;;4.63;2.85;;;30.30;1.00;;;;;;5094917;28;20203;-80
2022/05/06 09:45:01;;;;;;;7.65;3.70;;;30.30;1.00;;;;;;5094548;28;20282;-80
2022/05/06 09:47:28;;;;;;;21.70;12.38;;;30.20;1.00;;;;;;5094708;28;20659;-80
2022/05/06 09:49:56;;;;;;;5.63;3.42;;;29.60;1.00;;;;;;5094568;28;20198;-82
2022/05/06 09:52:23;;;;;;;5.90;3.30;;;28.80;1.00;;;;;;5094730;28;20230;-84
2022/05/06 09:54:50;;;;;;;6.68;3.40;;;28.20;1.00;;;;;;5094330;28;20535;-84
2022/05/06 09:57:19;;;;;;;4.28;2.67;;;27.70;1.00;;;;;;5093144;28;20238;-82
2022/05/06 09:59:46;;;;;;;4.97;2.70;;;27.60;1.00;;;;;;5093487;28;20550;-82
2022/05/06 10:02:14;;;;;;;4.40;2.70;;;27.60;1.00;;;;;;5094028;28;20664;-82
2022/05/06 10:04:43;;;;;;;3.05;2.60;;;28.00;1.00;;;;;;5094177;28;20563;-82
2022/05/06 10:07:14;;;;;;;5.97;2.90;;;28.20;1.00;;;;;;5094153;28;20724;-83
2022/05/06 10:09:48;;;;;;;3.15;2.50;;;28.40;1.00;;;;;;5094496;28;20175;-84
2022/05/06 10:12:18;;;;;;;5.22;2.70;;;28.00;1.00;;;;;;5094402;28;20222;-82
2022/05/06 10:14:46;;;;;;;3.35;2.80;;;27.70;1.00;;;;;;5094707;28;20194;-83
2022/05/06 10:17:13;;;;;;;5.85;3.05;;;27.30;1.00;;;;;;5093728;28;20271;-82
2022/05/06 10:19:47;;;;;;;3.55;2.90;;;26.80;1.00;;;;;;5094261;28;20200;-84
2022/05/06 10:22:15;;;;;;;3.75;2.70;;;26.50;1.00;;;;;;5094171;28;20195;-84
2022/05/06 10:24:43;;;;;;;5.85;3.40;;;26.30;1.00;;;;;;5093795;28;20195;-82
2022/05/06 10:27:22;;;;;;;7.40;3.58;;;26.10;1.00;;;;;;5094049;28;20191;-82
2022/05/06 10:32:53;;;;;;;6.38;3.63;;;26.60;1.00;;;;;;5093860;28;20229;-82
2022/05/06 10:35:36;;;;;;;6.65;3.67;;;26.40;1.00;;;;;;5092110;28;20666;-82
2022/05/06 10:38:17;;;;;;;4.53;3.25;;;26.00;1.00;;;;;;5093625;28;20194;-83
2022/05/06 10:40:52;;;;;;;5.07;3.38;;;25.70;1.00;;;;;;5093576;28;20195;-82
2022/05/06 10:43:51;;;;;;;6.78;3.95;;;25.30;1.00;;;;;;5093826;28;20164;-84
2022/05/06 10:46:40;;;;;;;5.85;3.70;;;25.20;1.00;;;;;;5093762;28;20186;-84
2022/05/06 10:49:47;;;;;;;7.95;4.30;;;25.00;1.00;;;;;;5093347;28;20958;-82
2022/05/06 10:52:54;;;;;;;5.85;4.00;;;25.00;1.00;;;;;;5093516;28;20227;-83
2022/05/06 10:55:24;;;;;;;4.75;4.07;;;25.10;1.00;;;;;;5093498;28;20195;-83
2022/05/06 10:58:05;;;;;;;9.27;4.32;;;24.80;1.00;;;;;;5093418;28;20306;-82
2022/05/06 11:00:37;;;;;;;7.22;3.90;;;24.40;1.00;;;;;;5093234;28;20184;-82
2022/05/06 11:03:04;;;;;;;4.80;3.67;;;24.10;1.00;;;;;;5093062;28;20694;-82
2022/05/06 11:05:32;;;;;;;5.78;3.72;;;23.80;1.00;;;;;;5093226;28;20717;-84
2022/05/06 11:08:01;;;;;;;4.40;3.13;;;23.60;1.00;;;;;;5093511;28;20196;-82
2022/05/06 11:10:33;;;;;;;4.53;3.63;;;23.60;1.00;;;;;;5093484;28;20286;-82
2022/05/06 11:13:01;;;;;;;4.50;2.90;;;23.90;1.00;;;;;;5093431;28;20229;-82
2022/05/06 11:15:30;;;;;;;5.72;3.08;;;23.70;1.00;;;;;;5093108;28;20202;-82
2022/05/06 11:17:59;;;;;;;6.82;3.83;;;23.70;1.00;;;;;;5092906;28;20219;-83
2022/05/06 11:20:29;;;;;;;7.28;3.85;;;23.70;1.00;;;;;;5092744;28;20558;-84
2022/05/06 11:22:57;;;;;;;6.03;3.85;;;23.80;1.00;;;;;;5092977;28;20231;-83
2022/05/06 11:25:26;;;;;;;4.63;3.05;;;23.80;1.00;;;;;;5092844;28;20554;-83
2022/05/06 11:27:56;;;;;;;4.95;3.00;;;23.80;1.00;;;;;;5092883;28;20302;-83
2022/05/06 11:30:24;;;;;;;4.15;3.70;;;24.00;1.00;;;;;;5092315;28;20253;-83
2022/05/06 11:32:54;;;;;;;6.82;3.60;;;24.00;1.00;;;;;;5092483;28;20710;-83
2022/05/06 11:35:26;;;;;;;5.47;3.88;;;23.80;1.00;;;;;;5092829;28;20231;-83
2022/05/06 11:37:53;;;;;;;11.75;4.05;;;23.80;1.00;;;;;;5092361;28;20214;-82
2022/05/06 11:40:37;;;;;;;6.15;3.58;;;23.90;1.00;;;;;;5092714;28;20287;-83
2022/05/06 11:43:19;;;;;;;5.90;3.90;;;23.80;1.00;;;;;;5092695;28;20179;-83
2022/05/06 11:48:32;;;;;;;6.78;4.05;;;23.70;1.00;;;;;;5092671;28;20182;-83
2022/05/06 11:51:04;;;;;;;5.90;3.88;;;23.40;1.00;;;;;;5092448;28;20313;-84
2022/05/06 11:53:32;;;;;;;6.03;3.50;;;23.20;1.00;;;;;;5092820;28;20180;-82
2022/05/06 11:55:59;;;;;;;6.25;4.05;;;23.20;1.00;;;;;;5092695;28;20195;-83
2022/05/06 11:58:28;;;;;;;7.50;4.22;;;23.30;1.00;;;;;;5092361;28;20306;-86
2022/05/06 12:00:55;;;;;;;5.72;3.80;;;23.30;1.00;;;;;;5092361;28;20226;-82
2022/05/06 12:03:24;;;;;;;4.85;3.65;;;23.30;1.00;;;;;;5092492;28;20226;-81
2022/05/06 12:06:03;;;;;;;6.10;4.80;;;23.30;1.00;;;;;;5092017;28;20206;-82
2022/05/06 12:08:32;;;;;;;5.93;3.95;;;23.50;1.00;;;;;;5092241;28;20655;-85
2022/05/06 12:11:00;;;;;;;17.92;4.53;;;23.40;1.00;;;;;;5091936;28;20191;-82
2022/05/06 12:13:34;;;;;;;5.53;4.25;;;23.50;1.00;;;;;;5092244;28;20279;-84
2022/05/06 12:16:09;;;;;;;11.50;4.40;;;23.50;1.00;;;;;;5092258;28;20711;-82
2022/05/06 12:18:36;;;;;;;8.45;4.72;;;23.60;1.00;;;;;;5091817;28;20778;-81
2022/05/06 12:21:18;;;;;;;7.50;5.20;;;23.60;1.00;;;;;;5092537;28;20191;-82
2022/05/06 12:23:54;;;;;;;7.05;3.95;;;23.40;1.00;;;;;;5092260;28;20218;-82
2022/05/06 12:26:33;;;;;;;7.25;4.68;;;23.30;1.00;;;;;;5092179;28;20267;-82
2022/05/06 12:29:02;;;;;;;7.53;4.00;;;23.40;1.00;;;;;;5092184;28;20196;-81
2022/05/06 12:31:30;;;;;;;9.40;3.92;;;23.50;1.00;;;;;;5092083;28;20219;-81
2022/05/06 12:34:06;;;;;;;6.30;4.50;;;23.50;1.00;;;;;;5091765;28;20640;-84
2022/05/06 12:36:33;;;;;;;5.55;4.05;;;23.60;1.00;;;;;;5092263;28;20183;-82
2022/05/06 12:39:00;;;;;;;7.05;4.03;;;23.60;1.00;;;;;;5092160;28;20211;-83
2022/05/06 12:41:33;;;;;;;5.65;3.60;;;23.60;1.00;;;;;;5094081;28;20226;-82
2022/05/06 12:44:16;;;;;;;5.07;3.42;;;23.70;1.00;;;;;;5096354;28;20212;-82
2022/05/06 12:46:43;;;;;;;5.68;3.80;;;23.80;1.00;;;;;;5096075;28;20604;-85
2022/05/06 12:51:54;;;;;;;13.82;4.20;;;23.80;1.00;;;;;;5095579;28;20250;-82
2022/05/06 12:54:22;;;;;;;5.78;4.18;;;23.70;1.00;;;;;;5095281;28;20226;-83
2022/05/06 12:56:49;;;;;;;10.18;4.00;;;23.60;1.00;;;;;;5095620;28;20245;-82
2022/05/06 12:59:17;;;;;;;8.23;3.92;;;23.70;1.00;;;;;;5095520;28;20219;-82
2022/05/06 13:01:44;;;;;;;4.63;2.83;;;23.80;1.00;;;;;;5094798;28;20199;-82
2022/05/06 13:04:11;;;;;;;4.75;3.00;;;23.70;1.00;;;;;;5094997;28;20700;-81
2022/05/06 13:06:38;;;;;;;4.50;2.78;;;23.70;1.00;;;;;;5095103;28;20283;-80
2022/05/06 13:09:06;;;;;;;4.97;3.25;;;23.70;1.00;;;;;;5095401;28;20195;-82
2022/05/06 13:11:33;;;;;;;4.32;2.80;;;23.70;1.00;;;;;;5095358;28;20672;-84
2022/05/06 13:14:00;;;;;;;3.63;2.50;;;23.50;1.00;;;;;;5095230;28;20280;-82
2022/05/06 13:16:28;;;;;;;5.72;2.05;;;23.30;1.00;;;;;;5095328;28;20200;-82
2022/05/06 13:18:55;;;;;;;3.15;2.00;;;23.10;1.00;;;;;;5095145;28;20215;-81
2022/05/06 13:21:22;;;;;;;2.83;1.90;;;22.90;1.00;;;;;;5095282;28;20196;-81
2022/05/06 13:23:49;;;;;;;3.80;2.35;;;22.80;1.00;;;;;;5094805;28;20223;-81
2022/05/06 13:26:16;;;;;;;4.35;3.08;;;22.60;1.00;;;;;;5095078;28;20282;-82
2022/05/06 13:28:44;;;;;;;4.63;3.50;;;22.50;1.00;;;;;;5094984;28;20227;-82
2022/05/06 13:31:11;;;;;;;9.20;4.60;;;22.50;1.00;;;;;;5094735;28;20675;-84
2022/05/06 13:33:39;;;;;;;5.25;3.58;;;22.60;1.00;;;;;;5095051;28;20219;-82
2022/05/06 13:36:06;;;;;;;7.20;3.95;;;22.70;1.00;;;;;;5094979;28;20201;-84
2022/05/06 13:38:33;;;;;;;6.22;4.50;;;22.50;1.00;;;;;;5095210;28;20258;-81
2022/05/06 13:41:00;;;;;;;9.02;7.72;;;22.40;1.00;;;;;;5097559;28;20195;-83
2022/05/06 13:43:27;;;;;;;5.32;4.38;;;22.40;1.00;;;;;;5111911;28;20278;-82
2022/05/06 13:45:53;;;;;;;6.90;4.78;;;22.40;1.00;;;;;;5114542;28;20191;-81